Decoded Metar for OICC (BAKHTARAN in IRAN) (IATA:KSH) | Meteo·Mobile Aviation Weather
aviador You're here:

OICC Decoded Metar

BAKHTARAN in IRAN
Report Time2018-12-13 03:30:00
UTC Time2018-12-13 03:41:21
Flight Rules vfr VFR
Wind280° at 06 kt
W.Decomp.*RWY 29: 5.8 kt HW 1.3 kt LCW
W.Rank280° ranks 3
Current wind is below 280° avg. (8.3)
Visibility9999 m
Phenomena:N/A
Clouds:N/A
Expected CloudBase > 1,200 ft AGL from Temp-Dew spread
CeilingNone
Temp01°C (ISA -5)
Dew Point-2°C (81% RH)
AAT-3.4°C
QNH1022 hPa
Density Alt3,468 ft
Elevation4,337 ft
Report Wrong Elevation
Raw Report
METAR OICC 130330Z 28006KT CAVOK 01/M02 Q1022 A3020 NOSIG=

Extra information for OICC:More info

Metar Taf Metar & Taf Last 4 Metars F.Rules Stats Wind Profile Meteogram Temp Stats Airport Information Weather charts Add Link Nearby VenuesMetar ALERT Operation Metar Decoded Social comments